sensor_id;sensor_type;location;lat;lon;timestamp;temperature;humidity
20558;DHT22;10437;48.156;11.530;2022-10-16T00:07:54;14.60;99.90
20558;DHT22;10437;48.156;11.530;2022-10-16T00:10:21;14.60;99.90
20558;DHT22;10437;48.156;11.530;2022-10-16T00:15:16;14.60;99.90
20558;DHT22;10437;48.156;11.530;2022-10-16T00:22:37;14.60;99.90
20558;DHT22;10437;48.156;11.530;2022-10-16T00:25:06;14.70;99.90
20558;DHT22;10437;48.156;11.530;2022-10-16T00:32:27;14.50;99.90
20558;DHT22;10437;48.156;11.530;2022-10-16T00:39:48;14.50;99.90
20558;DHT22;10437;48.156;11.530;2022-10-16T00:42:17;14.30;99.90
20558;DHT22;10437;48.156;11.530;2022-10-16T00:44:48;14.60;99.90
20558;DHT22;10437;48.156;11.530;2022-10-16T00:47:21;14.20;99.90
20558;DHT22;10437;48.156;11.530;2022-10-16T00:49:50;14.70;99.90
20558;DHT22;10437;48.156;11.530;2022-10-16T00:54:46;14.20;99.90
20558;DHT22;10437;48.156;11.530;2022-10-16T00:59:43;14.30;99.90
20558;DHT22;10437;48.156;11.530;2022-10-16T01:02:11;14.40;99.90
20558;DHT22;10437;48.156;11.530;2022-10-16T01:04:40;14.20;99.90
20558;DHT22;10437;48.156;11.530;2022-10-16T01:07:13;14.20;99.90
20558;DHT22;10437;48.156;11.530;2022-10-16T01:09:47;14.30;99.90
20558;DHT22;10437;48.156;11.530;2022-10-16T01:12:25;14.30;99.90
20558;DHT22;10437;48.156;11.530;2022-10-16T01:14:58;14.30;99.90
20558;DHT22;10437;48.156;11.530;2022-10-16T01:17:30;14.30;99.90
20558;DHT22;10437;48.156;11.530;2022-10-16T01:20:08;14.40;99.90
20558;DHT22;10437;48.156;11.530;2022-10-16T01:22:43;14.70;99.90
20558;DHT22;10437;48.156;11.530;2022-10-16T01:25:19;14.20;99.90
20558;DHT22;10437;48.156;11.530;2022-10-16T01:27:50;14.30;99.90
20558;DHT22;10437;48.156;11.530;2022-10-16T01:30:20;14.20;99.90
20558;DHT22;10437;48.156;11.530;2022-10-16T01:32:52;14.00;99.90
20558;DHT22;10437;48.156;11.530;2022-10-16T01:35:23;14.30;99.90
20558;DHT22;10437;48.156;11.530;2022-10-16T01:37:56;13.70;99.90
20558;DHT22;10437;48.156;11.530;2022-10-16T01:40:26;13.60;99.90
20558;DHT22;10437;48.156;11.530;2022-10-16T01:42:59;14.00;99.90
20558;DHT22;10437;48.156;11.530;2022-10-16T01:45:28;14.20;99.90
20558;DHT22;10437;48.156;11.530;2022-10-16T01:47:59;14.20;99.90
20558;DHT22;10437;48.156;11.530;2022-10-16T01:50:31;14.10;99.90
20558;DHT22;10437;48.156;11.530;2022-10-16T01:53:02;14.10;99.90
20558;DHT22;10437;48.156;11.530;2022-10-16T01:55:33;14.20;99.90
20558;DHT22;10437;48.156;11.530;2022-10-16T01:58:05;15.10;99.90
20558;DHT22;10437;48.156;11.530;2022-10-16T02:00:34;14.20;99.90
20558;DHT22;10437;48.156;11.530;2022-10-16T02:03:03;14.20;99.90
20558;DHT22;10437;48.156;11.530;2022-10-16T02:05:33;14.20;99.90
20558;DHT22;10437;48.156;11.530;2022-10-16T02:08:02;14.20;99.90
20558;DHT22;10437;48.156;11.530;2022-10-16T02:10:29;14.20;99.90
20558;DHT22;10437;48.156;11.530;2022-10-16T02:12:59;14.30;99.90
20558;DHT22;10437;48.156;11.530;2022-10-16T02:15:28;13.30;99.90
20558;DHT22;10437;48.156;11.530;2022-10-16T02:20:25;14.30;99.90
20558;DHT22;10437;48.156;11.530;2022-10-16T02:22:54;14.30;99.90
20558;DHT22;10437;48.156;11.530;2022-10-16T02:25:27;14.20;99.90
20558;DHT22;10437;48.156;11.530;2022-10-16T02:27:59;14.40;99.90
20558;DHT22;10437;48.156;11.530;2022-10-16T02:30:33;13.90;99.90
20558;DHT22;10437;48.156;11.530;2022-10-16T02:33:03;14.20;99.90
20558;DHT22;10437;48.156;11.530;2022-10-16T02:35:31;14.20;99.90
20558;DHT22;10437;48.156;11.530;2022-10-16T02:37:59;14.10;99.90
20558;DHT22;10437;48.156;11.530;2022-10-16T02:40:26;13.80;99.90
20558;DHT22;10437;48.156;11.530;2022-10-16T02:42:54;14.20;99.90
20558;DHT22;10437;48.156;11.530;2022-10-16T02:45:24;14.10;99.90
20558;DHT22;10437;48.156;11.530;2022-10-16T02:47:52;14.20;99.90
20558;DHT22;10437;48.156;11.530;2022-10-16T03:00:09;14.20;99.90
20558;DHT22;10437;48.156;11.530;2022-10-16T03:05:07;13.90;99.90
20558;DHT22;10437;48.156;11.530;2022-10-16T03:12:29;14.50;99.90
20558;DHT22;10437;48.156;11.530;2022-10-16T03:22:19;14.00;99.90
20558;DHT22;10437;48.156;11.530;2022-10-16T03:29:40;14.10;99.90
20558;DHT22;10437;48.156;11.530;2022-10-16T03:37:01;13.80;99.90
20558;DHT22;10437;48.156;11.530;2022-10-16T03:39:29;14.10;99.90
20558;DHT22;10437;48.156;11.530;2022-10-16T03:56:40;14.40;99.90
20558;DHT22;10437;48.156;11.530;2022-10-16T04:08:55;14.40;99.90
20558;DHT22;10437;48.156;11.530;2022-10-16T04:11:22;14.70;99.90
20558;DHT22;10437;48.156;11.530;2022-10-16T04:13:50;14.30;99.90
20558;DHT22;10437;48.156;11.530;2022-10-16T04:28:33;14.40;99.90
20558;DHT22;10437;48.156;11.530;2022-10-16T04:31:03;14.30;99.90
20558;DHT22;10437;48.156;11.530;2022-10-16T04:48:17;14.50;99.90
20558;DHT22;10437;48.156;11.530;2022-10-16T04:55:38;14.50;99.90
20558;DHT22;10437;48.156;11.530;2022-10-16T05:00:32;14.50;99.90
20558;DHT22;10437;48.156;11.530;2022-10-16T05:05:28;14.50;99.90
20558;DHT22;10437;48.156;11.530;2022-10-16T05:10:22;14.50;99.90
20558;DHT22;10437;48.156;11.530;2022-10-16T05:22:39;14.50;99.90
20558;DHT22;10437;48.156;11.530;2022-10-16T05:25:06;14.20;99.90
20558;DHT22;10437;48.156;11.530;2022-10-16T05:39:50;14.50;99.90
20558;DHT22;10437;48.156;11.530;2022-10-16T05:42:17;14.60;99.90
20558;DHT22;10437;48.156;11.530;2022-10-16T05:47:12;14.50;99.90
20558;DHT22;10437;48.156;11.530;2022-10-16T05:49:39;14.60;99.90
20558;DHT22;10437;48.156;11.530;2022-10-16T05:57:02;14.40;99.90
20558;DHT22;10437;48.156;11.530;2022-10-16T06:14:15;14.40;99.90
20558;DHT22;10437;48.156;11.530;2022-10-16T06:16:42;14.40;99.90
20558;DHT22;10437;48.156;11.530;2022-10-16T06:24:03;14.50;99.90
20558;DHT22;10437;48.156;11.530;2022-10-16T06:26:31;14.50;99.90
20558;DHT22;10437;48.156;11.530;2022-10-16T06:28:59;14.50;99.90
20558;DHT22;10437;48.156;11.530;2022-10-16T06:31:28;14.50;99.90
20558;DHT22;10437;48.156;11.530;2022-10-16T06:36:24;14.50;99.90
20558;DHT22;10437;48.156;11.530;2022-10-16T06:41:19;14.50;99.90
20558;DHT22;10437;48.156;11.530;2022-10-16T06:43:46;14.50;99.90
20558;DHT22;10437;48.156;11.530;2022-10-16T06:46:15;14.60;99.90
20558;DHT22;10437;48.156;11.530;2022-10-16T06:48:44;14.90;99.90
20558;DHT22;10437;48.156;11.530;2022-10-16T06:51:12;14.40;99.90
20558;DHT22;10437;48.156;11.530;2022-10-16T06:53:43;14.30;99.90
20558;DHT22;10437;48.156;11.530;2022-10-16T06:56:11;14.10;99.90
20558;DHT22;10437;48.156;11.530;2022-10-16T07:03:33;14.50;99.90
20558;DHT22;10437;48.156;11.530;2022-10-16T07:06:03;14.40;99.90
20558;DHT22;10437;48.156;11.530;2022-10-16T07:08:31;14.80;99.90
20558;DHT22;10437;48.156;11.530;2022-10-16T07:10:59;14.50;99.90
20558;DHT22;10437;48.156;11.530;2022-10-16T07:20:51;14.80;99.90
20558;DHT22;10437;48.156;11.530;2022-10-16T07:23:19;14.90;99.90
20558;DHT22;10437;48.156;11.530;2022-10-16T07:25:53;15.00;99.90
20558;DHT22;10437;48.156;11.530;2022-10-16T07:35:48;15.50;99.90
20558;DHT22;10437;48.156;11.530;2022-10-16T07:40:44;15.70;99.90
20558;DHT22;10437;48.156;11.530;2022-10-16T07:43:11;15.90;99.90
20558;DHT22;10437;48.156;11.530;2022-10-16T07:45:46;15.70;99.90
20558;DHT22;10437;48.156;11.530;2022-10-16T07:58:03;17.50;99.90
20558;DHT22;10437;48.156;11.530;2022-10-16T08:05:26;17.60;99.90
20558;DHT22;10437;48.156;11.530;2022-10-16T08:07:53;20.30;99.90
20558;DHT22;10437;48.156;11.530;2022-10-16T08:10:21;19.40;99.90
20558;DHT22;10437;48.156;11.530;2022-10-16T08:15:17;19.70;99.90
20558;DHT22;10437;48.156;11.530;2022-10-16T08:25:06;21.10;99.90
20558;DHT22;10437;48.156;11.530;2022-10-16T08:32:28;20.30;99.90
20558;DHT22;10437;48.156;11.530;2022-10-16T08:39:50;20.10;99.90
20558;DHT22;10437;48.156;11.530;2022-10-16T08:42:31;20.20;99.90
20558;DHT22;10437;48.156;11.530;2022-10-16T08:45:19;20.20;99.90
20558;DHT22;10437;48.156;11.530;2022-10-16T08:47:59;18.30;99.90
20558;DHT22;10437;48.156;11.530;2022-10-16T08:50:29;20.20;99.90
20558;DHT22;10437;48.156;11.530;2022-10-16T08:52:57;20.10;99.90
20558;DHT22;10437;48.156;11.530;2022-10-16T08:55:38;20.70;99.90
20558;DHT22;10437;48.156;11.530;2022-10-16T08:58:12;20.20;99.90
20558;DHT22;10437;48.156;11.530;2022-10-16T09:00:41;20.20;99.90
20558;DHT22;10437;48.156;11.530;2022-10-16T09:03:17;20.50;99.90
20558;DHT22;10437;48.156;11.530;2022-10-16T09:06:10;20.60;99.90
20558;DHT22;10437;48.156;11.530;2022-10-16T09:08:52;20.70;99.90
20558;DHT22;10437;48.156;11.530;2022-10-16T09:11:26;21.00;99.90
20558;DHT22;10437;48.156;11.530;2022-10-16T09:14:04;20.90;99.90
20558;DHT22;10437;48.156;11.530;2022-10-16T09:16:36;21.00;99.90
20558;DHT22;10437;48.156;11.530;2022-10-16T09:19:15;20.60;99.90
20558;DHT22;10437;48.156;11.530;2022-10-16T09:24:15;21.10;99.90
20558;DHT22;10437;48.156;11.530;2022-10-16T09:29:11;21.20;99.90
20558;DHT22;10437;48.156;11.530;2022-10-16T09:31:39;21.20;99.90
20558;DHT22;10437;48.156;11.530;2022-10-16T09:34:23;21.20;99.90
20558;DHT22;10437;48.156;11.530;2022-10-16T09:44:21;21.50;99.90
20558;DHT22;10437;48.156;11.530;2022-10-16T09:47:01;21.60;99.90
20558;DHT22;10437;48.156;11.530;2022-10-16T09:49:29;21.70;99.90
20558;DHT22;10437;48.156;11.530;2022-10-16T09:52:04;21.60;99.90
20558;DHT22;10437;48.156;11.530;2022-10-16T09:57:04;22.10;99.90
20558;DHT22;10437;48.156;11.530;2022-10-16T09:59:32;24.60;99.90
20558;DHT22;10437;48.156;11.530;2022-10-16T10:02:03;22.60;99.90
20558;DHT22;10437;48.156;11.530;2022-10-16T10:04:41;22.80;99.90
20558;DHT22;10437;48.156;11.530;2022-10-16T10:07:17;22.90;99.90
20558;DHT22;10437;48.156;11.530;2022-10-16T10:09:45;23.00;99.90
20558;DHT22;10437;48.156;11.530;2022-10-16T10:12:20;22.80;99.90
20558;DHT22;10437;48.156;11.530;2022-10-16T10:14:49;22.70;99.90
20558;DHT22;10437;48.156;11.530;2022-10-16T10:17:19;22.70;99.90
20558;DHT22;10437;48.156;11.530;2022-10-16T10:19:50;22.60;99.90
20558;DHT22;10437;48.156;11.530;2022-10-16T10:22:21;22.50;99.90
20558;DHT22;10437;48.156;11.530;2022-10-16T10:27:47;22.30;99.90
20558;DHT22;10437;48.156;11.530;2022-10-16T10:30:21;22.10;99.90
20558;DHT22;10437;48.156;11.530;2022-10-16T10:33:00;22.40;99.90
20558;DHT22;10437;48.156;11.530;2022-10-16T10:35:38;23.00;99.90
20558;DHT22;10437;48.156;11.530;2022-10-16T10:38:20;22.70;99.90
20558;DHT22;10437;48.156;11.530;2022-10-16T10:40:51;22.70;99.90
20558;DHT22;10437;48.156;11.530;2022-10-16T10:43:35;22.80;99.90
20558;DHT22;10437;48.156;11.530;2022-10-16T10:46:12;22.90;99.90
20558;DHT22;10437;48.156;11.530;2022-10-16T10:48:54;22.50;99.90
20558;DHT22;10437;48.156;11.530;2022-10-16T10:51:30;22.80;99.90
20558;DHT22;10437;48.156;11.530;2022-10-16T10:54:10;22.80;99.90
20558;DHT22;10437;48.156;11.530;2022-10-16T10:56:45;22.90;99.90
20558;DHT22;10437;48.156;11.530;2022-10-16T11:02:15;23.10;99.90
20558;DHT22;10437;48.156;11.530;2022-10-16T11:05:08;23.10;99.90
20558;DHT22;10437;48.156;11.530;2022-10-16T11:07:41;23.50;99.90
20558;DHT22;10437;48.156;11.530;2022-10-16T11:10:13;23.90;99.90
20558;DHT22;10437;48.156;11.530;2022-10-16T11:12:43;24.90;99.90
20558;DHT22;10437;48.156;11.530;2022-10-16T11:15:15;25.60;97.50
20558;DHT22;10437;48.156;11.530;2022-10-16T11:17:49;26.40;95.40
20558;DHT22;10437;48.156;11.530;2022-10-16T11:20:21;27.10;91.90
20558;DHT22;10437;48.156;11.530;2022-10-16T11:22:54;27.80;92.90
20558;DHT22;10437;48.156;11.530;2022-10-16T11:25:24;27.50;89.10
20558;DHT22;10437;48.156;11.530;2022-10-16T11:27:58;27.70;88.30
20558;DHT22;10437;48.156;11.530;2022-10-16T11:30:29;27.80;86.70
20558;DHT22;10437;48.156;11.530;2022-10-16T11:33:04;27.40;85.60
20558;DHT22;10437;48.156;11.530;2022-10-16T11:35:41;26.80;89.70
20558;DHT22;10437;48.156;11.530;2022-10-16T11:38:15;26.30;90.60
20558;DHT22;10437;48.156;11.530;2022-10-16T11:40:49;26.20;85.70
20558;DHT22;10437;48.156;11.530;2022-10-16T11:43:24;25.90;92.90
20558;DHT22;10437;48.156;11.530;2022-10-16T11:45:52;25.60;92.40
20558;DHT22;10437;48.156;11.530;2022-10-16T11:48:27;25.10;87.60
20558;DHT22;10437;48.156;11.530;2022-10-16T11:51:00;25.10;87.10
20558;DHT22;10437;48.156;11.530;2022-10-16T11:53:39;24.80;88.50
20558;DHT22;10437;48.156;11.530;2022-10-16T11:56:12;24.70;90.10
20558;DHT22;10437;48.156;11.530;2022-10-16T11:58:50;24.60;90.30
20558;DHT22;10437;48.156;11.530;2022-10-16T12:01:22;24.60;91.00
20558;DHT22;10437;48.156;11.530;2022-10-16T12:04:02;24.60;97.90
20558;DHT22;10437;48.156;11.530;2022-10-16T12:06:34;24.60;90.00
20558;DHT22;10437;48.156;11.530;2022-10-16T12:09:04;25.10;91.20
20558;DHT22;10437;48.156;11.530;2022-10-16T12:11:34;25.00;90.50
20558;DHT22;10437;48.156;11.530;2022-10-16T12:14:17;25.30;87.90
20558;DHT22;10437;48.156;11.530;2022-10-16T12:16:52;25.50;92.00
20558;DHT22;10437;48.156;11.530;2022-10-16T12:19:20;26.00;89.20
20558;DHT22;10437;48.156;11.530;2022-10-16T12:21:48;26.20;90.60
20558;DHT22;10437;48.156;11.530;2022-10-16T12:24:31;26.20;91.10
20558;DHT22;10437;48.156;11.530;2022-10-16T12:29:32;26.70;89.40
20558;DHT22;10437;48.156;11.530;2022-10-16T12:32:00;26.90;88.60
20558;DHT22;10437;48.156;11.530;2022-10-16T12:34:32;27.20;87.90
20558;DHT22;10437;48.156;11.530;2022-10-16T12:37:10;27.30;85.00
20558;DHT22;10437;48.156;11.530;2022-10-16T12:39:39;27.70;88.50
20558;DHT22;10437;48.156;11.530;2022-10-16T12:42:22;27.50;84.70
20558;DHT22;10437;48.156;11.530;2022-10-16T12:47:34;26.80;80.30
20558;DHT22;10437;48.156;11.530;2022-10-16T12:52:35;26.00;87.10
20558;DHT22;10437;48.156;11.530;2022-10-16T12:55:05;25.60;88.40
20558;DHT22;10437;48.156;11.530;2022-10-16T12:57:49;25.20;88.00
20558;DHT22;10437;48.156;11.530;2022-10-16T13:00:25;24.90;89.70
20558;DHT22;10437;48.156;11.530;2022-10-16T13:06:17;24.60;90.00
20558;DHT22;10437;48.156;11.530;2022-10-16T13:08:58;24.80;89.60
20558;DHT22;10437;48.156;11.530;2022-10-16T13:11:41;25.00;89.70
20558;DHT22;10437;48.156;11.530;2022-10-16T13:14:27;25.30;89.60
20558;DHT22;10437;48.156;11.530;2022-10-16T13:17:00;25.50;89.20
20558;DHT22;10437;48.156;11.530;2022-10-16T13:19:36;25.60;86.80
20558;DHT22;10437;48.156;11.530;2022-10-16T13:22:11;26.00;87.20
20558;DHT22;10437;48.156;11.530;2022-10-16T13:24:50;26.10;87.30
20558;DHT22;10437;48.156;11.530;2022-10-16T13:27:31;26.40;86.00
20558;DHT22;10437;48.156;11.530;2022-10-16T13:30:03;26.50;84.40
20558;DHT22;10437;48.156;11.530;2022-10-16T13:35:19;27.10;83.00
20558;DHT22;10437;48.156;11.530;2022-10-16T13:37:46;27.30;93.20
20558;DHT22;10437;48.156;11.530;2022-10-16T13:40:20;27.40;81.40
20558;DHT22;10437;48.156;11.530;2022-10-16T13:42:49;27.60;85.90
20558;DHT22;10437;48.156;11.530;2022-10-16T13:45:20;28.20;84.00
20558;DHT22;10437;48.156;11.530;2022-10-16T13:50:16;27.40;79.70
20558;DHT22;10437;48.156;11.530;2022-10-16T13:52:44;26.90;76.40
20558;DHT22;10437;48.156;11.530;2022-10-16T13:55:12;24.80;79.40
20558;DHT22;10437;48.156;11.530;2022-10-16T14:00:20;25.70;80.50
20558;DHT22;10437;48.156;11.530;2022-10-16T14:02:53;25.40;81.70
20558;DHT22;10437;48.156;11.530;2022-10-16T14:07:50;24.90;84.00
20558;DHT22;10437;48.156;11.530;2022-10-16T14:10:22;24.70;83.50
20558;DHT22;10437;48.156;11.530;2022-10-16T14:12:58;24.60;84.40
20558;DHT22;10437;48.156;11.530;2022-10-16T14:15:27;24.40;90.00
20558;DHT22;10437;48.156;11.530;2022-10-16T14:20:25;24.10;87.00
20558;DHT22;10437;48.156;11.530;2022-10-16T14:23:03;24.00;93.50
20558;DHT22;10437;48.156;11.530;2022-10-16T14:25:31;23.70;93.20
20558;DHT22;10437;48.156;11.530;2022-10-16T14:28:00;22.90;87.90
20558;DHT22;10437;48.156;11.530;2022-10-16T14:30:30;24.00;93.30
20558;DHT22;10437;48.156;11.530;2022-10-16T14:32:58;23.70;91.30
20558;DHT22;10437;48.156;11.530;2022-10-16T14:35:29;23.90;93.10
20558;DHT22;10437;48.156;11.530;2022-10-16T14:37:57;23.30;90.70
20558;DHT22;10437;48.156;11.530;2022-10-16T14:40:26;23.30;89.70
20558;DHT22;10437;48.156;11.530;2022-10-16T14:42:53;23.30;90.10
20558;DHT22;10437;48.156;11.530;2022-10-16T14:45:22;23.30;90.70
20558;DHT22;10437;48.156;11.530;2022-10-16T14:47:53;23.40;91.60
20558;DHT22;10437;48.156;11.530;2022-10-16T14:50:21;23.00;90.50
20558;DHT22;10437;48.156;11.530;2022-10-16T14:55:15;22.80;90.80
20558;DHT22;10437;48.156;11.530;2022-10-16T14:57:43;22.80;91.60
20558;DHT22;10437;48.156;11.530;2022-10-16T15:00:16;22.80;92.80
20558;DHT22;10437;48.156;11.530;2022-10-16T15:05:16;22.60;92.50
20558;DHT22;10437;48.156;11.530;2022-10-16T15:07:43;22.60;92.10
20558;DHT22;10437;48.156;11.530;2022-10-16T15:15:21;22.20;93.90
20558;DHT22;10437;48.156;11.530;2022-10-16T15:17:49;22.10;99.00
20558;DHT22;10437;48.156;11.530;2022-10-16T15:20:19;22.20;93.70
20558;DHT22;10437;48.156;11.530;2022-10-16T15:25:30;21.90;94.70
20558;DHT22;10437;48.156;11.530;2022-10-16T15:30:25;21.90;94.30
20558;DHT22;10437;48.156;11.530;2022-10-16T15:35:21;21.70;96.00
20558;DHT22;10437;48.156;11.530;2022-10-16T15:40:15;21.60;95.50
20558;DHT22;10437;48.156;11.530;2022-10-16T15:45:10;21.10;98.00
20558;DHT22;10437;48.156;11.530;2022-10-16T15:47:37;21.40;99.90
20558;DHT22;10437;48.156;11.530;2022-10-16T15:50:05;21.50;98.00
20558;DHT22;10437;48.156;11.530;2022-10-16T15:52:33;21.50;99.90
20558;DHT22;10437;48.156;11.530;2022-10-16T15:57:28;21.30;98.80
20558;DHT22;10437;48.156;11.530;2022-10-16T16:07:16;21.10;99.90
20558;DHT22;10437;48.156;11.530;2022-10-16T16:09:44;21.10;99.90
20558;DHT22;10437;48.156;11.530;2022-10-16T16:19:33;20.40;99.90
20558;DHT22;10437;48.156;11.530;2022-10-16T16:22:00;20.70;99.90
20558;DHT22;10437;48.156;11.530;2022-10-16T16:26:55;20.40;99.90
20558;DHT22;10437;48.156;11.530;2022-10-16T16:29:22;20.50;99.90
20558;DHT22;10437;48.156;11.530;2022-10-16T16:39:17;19.90;99.90
20558;DHT22;10437;48.156;11.530;2022-10-16T16:44:13;22.40;99.90
20558;DHT22;10437;48.156;11.530;2022-10-16T16:46:41;20.30;99.90
20558;DHT22;10437;48.156;11.530;2022-10-16T16:49:09;19.90;99.90
20558;DHT22;10437;48.156;11.530;2022-10-16T16:51:37;20.40;99.90
20558;DHT22;10437;48.156;11.530;2022-10-16T16:54:05;19.50;99.90
20558;DHT22;10437;48.156;11.530;2022-10-16T17:01:28;19.40;99.90
20558;DHT22;10437;48.156;11.530;2022-10-16T17:03:57;19.20;99.90
20558;DHT22;10437;48.156;11.530;2022-10-16T17:06:26;19.30;99.90
20558;DHT22;10437;48.156;11.530;2022-10-16T17:08:55;18.80;99.90
20558;DHT22;10437;48.156;11.530;2022-10-16T17:11:24;19.20;99.90
20558;DHT22;10437;48.156;11.530;2022-10-16T17:13:52;19.30;99.90
20558;DHT22;10437;48.156;11.530;2022-10-16T17:16:20;19.00;99.90
20558;DHT22;10437;48.156;11.530;2022-10-16T17:18:49;19.00;99.90
20558;DHT22;10437;48.156;11.530;2022-10-16T17:26:11;18.50;99.90
20558;DHT22;10437;48.156;11.530;2022-10-16T17:31:11;18.80;99.90
20558;DHT22;10437;48.156;11.530;2022-10-16T17:33:39;18.50;99.90
20558;DHT22;10437;48.156;11.530;2022-10-16T17:36:08;18.70;99.90
20558;DHT22;10437;48.156;11.530;2022-10-16T17:41:12;18.70;99.90
20558;DHT22;10437;48.156;11.530;2022-10-16T17:48:36;18.90;99.90
20558;DHT22;10437;48.156;11.530;2022-10-16T17:51:04;18.50;99.90
20558;DHT22;10437;48.156;11.530;2022-10-16T17:53:34;18.50;99.90
20558;DHT22;10437;48.156;11.530;2022-10-16T17:56:04;18.50;99.90
20558;DHT22;10437;48.156;11.530;2022-10-16T17:58:31;17.70;99.90
20558;DHT22;10437;48.156;11.530;2022-10-16T18:05:53;18.30;99.90
20558;DHT22;10437;48.156;11.530;2022-10-16T18:10:49;19.00;99.90
20558;DHT22;10437;48.156;11.530;2022-10-16T18:13:16;18.30;99.90
20558;DHT22;10437;48.156;11.530;2022-10-16T18:28:01;18.30;99.90
20558;DHT22;10437;48.156;11.530;2022-10-16T18:40:20;17.70;99.90
20558;DHT22;10437;48.156;11.530;2022-10-16T18:45:16;18.00;99.90
20558;DHT22;10437;48.156;11.530;2022-10-16T18:50:10;17.90;99.90
20558;DHT22;10437;48.156;11.530;2022-10-16T18:55:07;17.80;99.90
20558;DHT22;10437;48.156;11.530;2022-10-16T19:02:30;17.70;99.90
20558;DHT22;10437;48.156;11.530;2022-10-16T19:14:47;17.50;99.90
20558;DHT22;10437;48.156;11.530;2022-10-16T19:19:42;17.70;99.90
20558;DHT22;10437;48.156;11.530;2022-10-16T19:32:14;17.80;99.90
20558;DHT22;10437;48.156;11.530;2022-10-16T19:34:43;17.70;99.90
20558;DHT22;10437;48.156;11.530;2022-10-16T19:51:54;17.70;99.90
20558;DHT22;10437;48.156;11.530;2022-10-16T20:01:45;18.30;99.90
20558;DHT22;10437;48.156;11.530;2022-10-16T20:09:08;17.70;99.90
20558;DHT22;10437;48.156;11.530;2022-10-16T20:11:36;17.80;99.90
20558;DHT22;10437;48.156;11.530;2022-10-16T20:14:03;18.10;99.90
20558;DHT22;10437;48.156;11.530;2022-10-16T20:16:31;17.60;99.90
20558;DHT22;10437;48.156;11.530;2022-10-16T20:18:58;17.90;99.90
20558;DHT22;10437;48.156;11.530;2022-10-16T20:21:27;17.60;99.90
20558;DHT22;10437;48.156;11.530;2022-10-16T20:26:24;17.80;99.90
20558;DHT22;10437;48.156;11.530;2022-10-16T20:28:52;17.60;99.90
20558;DHT22;10437;48.156;11.530;2022-10-16T20:31:21;17.60;99.90
20558;DHT22;10437;48.156;11.530;2022-10-16T20:33:49;17.60;99.90
20558;DHT22;10437;48.156;11.530;2022-10-16T20:36:17;17.50;99.90
20558;DHT22;10437;48.156;11.530;2022-10-16T20:38:44;17.80;99.90
20558;DHT22;10437;48.156;11.530;2022-10-16T20:41:12;17.70;99.90
20558;DHT22;10437;48.156;11.530;2022-10-16T20:43:42;17.00;99.90
20558;DHT22;10437;48.156;11.530;2022-10-16T20:46:10;17.50;99.90
20558;DHT22;10437;48.156;11.530;2022-10-16T20:48:39;17.40;99.90
20558;DHT22;10437;48.156;11.530;2022-10-16T20:51:13;17.40;99.90
20558;DHT22;10437;48.156;11.530;2022-10-16T20:53:41;17.50;99.90
20558;DHT22;10437;48.156;11.530;2022-10-16T21:01:07;17.30;99.90
20558;DHT22;10437;48.156;11.530;2022-10-16T21:03:34;17.10;99.90
20558;DHT22;10437;48.156;11.530;2022-10-16T21:18:19;16.80;99.90
20558;DHT22;10437;48.156;11.530;2022-10-16T21:25:47;15.20;99.90
20558;DHT22;10437;48.156;11.530;2022-10-16T21:35:36;16.50;99.90
20558;DHT22;10437;48.156;11.530;2022-10-16T21:40:32;16.60;99.90
20558;DHT22;10437;48.156;11.530;2022-10-16T21:42:59;16.50;99.90
20558;DHT22;10437;48.156;11.530;2022-10-16T21:52:48;16.50;99.90
20558;DHT22;10437;48.156;11.530;2022-10-16T22:00:10;16.40;99.90
20558;DHT22;10437;48.156;11.530;2022-10-16T22:05:04;16.50;99.90
20558;DHT22;10437;48.156;11.530;2022-10-16T22:10:00;16.00;99.90
20558;DHT22;10437;48.156;11.530;2022-10-16T22:12:28;16.40;99.90
20558;DHT22;10437;48.156;11.530;2022-10-16T22:19:49;16.40;99.90
20558;DHT22;10437;48.156;11.530;2022-10-16T22:27:11;16.40;99.90
20558;DHT22;10437;48.156;11.530;2022-10-16T22:36:59;16.00;99.90
20558;DHT22;10437;48.156;11.530;2022-10-16T22:44:22;16.10;99.90
20558;DHT22;10437;48.156;11.530;2022-10-16T22:51:45;16.10;99.90
20558;DHT22;10437;48.156;11.530;2022-10-16T22:54:12;16.00;99.90
20558;DHT22;10437;48.156;11.530;2022-10-16T22:56:39;15.70;99.90
20558;DHT22;10437;48.156;11.530;2022-10-16T23:01:37;15.90;99.90
20558;DHT22;10437;48.156;11.530;2022-10-16T23:04:05;15.90;99.90
20558;DHT22;10437;48.156;11.530;2022-10-16T23:06:32;16.30;99.90
20558;DHT22;10437;48.156;11.530;2022-10-16T23:09:00;15.70;99.90
20558;DHT22;10437;48.156;11.530;2022-10-16T23:11:28;15.60;99.90
20558;DHT22;10437;48.156;11.530;2022-10-16T23:16:23;15.60;99.90
20558;DHT22;10437;48.156;11.530;2022-10-16T23:18:51;15.70;99.90
20558;DHT22;10437;48.156;11.530;2022-10-16T23:21:20;15.50;99.90
20558;DHT22;10437;48.156;11.530;2022-10-16T23:26:17;15.60;99.90
20558;DHT22;10437;48.156;11.530;2022-10-16T23:28:44;15.60;99.90
20558;DHT22;10437;48.156;11.530;2022-10-16T23:31:12;15.60;99.90
20558;DHT22;10437;48.156;11.530;2022-10-16T23:36:09;15.40;99.90
20558;DHT22;10437;48.156;11.530;2022-10-16T23:38:37;15.40;99.90
20558;DHT22;10437;48.156;11.530;2022-10-16T23:41:04;15.40;99.90
20558;DHT22;10437;48.156;11.530;2022-10-16T23:43:31;15.30;99.90
20558;DHT22;10437;48.156;11.530;2022-10-16T23:45:58;15.30;99.90
20558;DHT22;10437;48.156;11.530;2022-10-16T23:48:26;15.20;99.90
20558;DHT22;10437;48.156;11.530;2022-10-16T23:53:21;15.50;99.90
20558;DHT22;10437;48.156;11.530;2022-10-16T23:55:48;16.40;99.90
20558;DHT22;10437;48.156;11.530;2022-10-16T23:58:15;15.00;99.90
